Time;durP1;ratioP1;P1;durP2;ratioP2;P2;SDS_P1;SDS_P2;PMS_P1;PMS_P2;Temp;Humidity;BMP_temperature;BMP_pressure;BME280_temperature;BME280_humidity;BME280_pressure;Samples;Min_cycle;Max_cycle;Signal;HPM_P1;HPM_P2
2022/12/14 00:00:46;;;;;;;37.03;15.20;;;2.10;99.90;;;;;;5054158;28;20151;-54
2022/12/14 00:03:13;;;;;;;32.92;14.48;;;2.10;99.90;;;;;;5053908;28;20021;-56
2022/12/14 00:05:39;;;;;;;35.85;15.50;;;2.10;99.90;;;;;;5053605;28;20031;-56
2022/12/14 00:08:06;;;;;;;28.75;15.23;;;2.10;99.90;;;;;;5053877;28;20036;-55
2022/12/14 00:10:33;;;;;;;31.60;15.35;;;2.10;99.90;;;;;;5053619;28;20044;-55
2022/12/14 00:12:59;;;;;;;34.13;15.45;;;2.10;99.90;;;;;;5053710;28;20025;-53
2022/12/14 00:15:26;;;;;;;34.58;15.00;;;2.10;99.90;;;;;;5053602;28;20090;-51
2022/12/14 00:17:51;;;;;;;34.38;15.13;;;2.20;99.90;;;;;;5053537;28;20017;-51
2022/12/14 00:20:17;;;;;;;39.50;15.88;;;2.20;99.90;;;;;;5053536;28;20355;-53
2022/12/14 00:22:43;;;;;;;33.22;14.40;;;2.20;99.90;;;;;;5053568;28;20025;-53
2022/12/14 00:25:09;;;;;;;32.47;15.15;;;2.20;99.90;;;;;;5053552;28;20021;-52
2022/12/14 00:27:35;;;;;;;34.08;15.15;;;2.20;99.90;;;;;;5053360;28;20384;-52
2022/12/14 00:30:00;;;;;;;26.90;13.85;;;2.10;99.90;;;;;;5053018;28;20033;-55
2022/12/14 00:32:26;;;;;;;31.83;14.50;;;2.20;99.90;;;;;;5053424;28;20033;-53
2022/12/14 00:34:52;;;;;;;34.10;14.23;;;2.20;99.90;;;;;;5053332;28;20059;-54
2022/12/14 00:37:18;;;;;;;35.05;15.45;;;2.20;99.90;;;;;;5053226;28;20104;-56
2022/12/14 00:39:43;;;;;;;37.03;15.60;;;2.10;99.90;;;;;;5053238;28;20028;-52
2022/12/14 00:42:09;;;;;;;35.03;15.90;;;2.10;99.90;;;;;;5053669;28;20033;-53
2022/12/14 00:44:35;;;;;;;36.65;15.15;;;2.10;99.90;;;;;;5053503;28;20501;-55
2022/12/14 00:47:00;;;;;;;32.10;15.43;;;2.10;99.90;;;;;;5053128;28;20025;-50
2022/12/14 00:49:26;;;;;;;32.75;14.93;;;2.10;99.90;;;;;;5053387;28;20056;-62
2022/12/14 00:51:52;;;;;;;37.83;14.82;;;2.10;99.90;;;;;;5052278;28;20094;-54
2022/12/14 00:54:17;;;;;;;36.85;14.75;;;2.10;99.90;;;;;;5052984;28;20104;-53
2022/12/14 00:56:43;;;;;;;37.00;16.75;;;2.20;99.90;;;;;;5051864;28;20083;-55
2022/12/14 00:59:09;;;;;;;35.72;16.15;;;2.20;99.90;;;;;;5053038;28;20021;-53
2022/12/14 01:01:35;;;;;;;36.28;15.43;;;2.20;99.90;;;;;;5053010;28;20028;-56
2022/12/14 01:04:16;;;;;;;37.83;14.30;;;2.10;99.90;;;;;;5052928;28;20021;-54
2022/12/14 01:06:46;;;;;;;29.45;13.48;;;2.10;99.90;;;;;;5052898;28;20021;-56
2022/12/14 01:09:12;;;;;;;34.85;14.43;;;2.10;99.90;;;;;;5053005;28;20025;-53
2022/12/14 01:11:38;;;;;;;40.70;15.23;;;2.10;99.90;;;;;;5052668;28;20040;-54
2022/12/14 01:14:05;;;;;;;35.45;15.13;;;2.10;99.90;;;;;;5052699;28;20078;-55
2022/12/14 01:16:31;;;;;;;33.30;14.88;;;2.10;99.90;;;;;;5052749;28;20101;-55
2022/12/14 01:18:59;;;;;;;30.48;13.93;;;2.20;99.90;;;;;;5052563;28;20056;-54
2022/12/14 01:21:25;;;;;;;34.90;15.57;;;2.20;99.90;;;;;;5051420;28;20024;-53
2022/12/14 01:23:53;;;;;;;36.00;14.50;;;2.10;99.90;;;;;;5052349;28;20063;-52
2022/12/14 01:26:20;;;;;;;32.25;14.20;;;2.10;99.90;;;;;;5052548;28;20044;-54
2022/12/14 01:28:47;;;;;;;34.28;14.35;;;2.20;99.90;;;;;;5052326;28;20025;-55
2022/12/14 01:31:16;;;;;;;28.58;14.30;;;2.20;99.90;;;;;;5052030;28;20060;-53
2022/12/14 01:33:43;;;;;;;32.33;13.57;;;2.20;99.90;;;;;;5050696;28;20029;-55
2022/12/14 01:36:12;;;;;;;31.75;13.95;;;2.20;99.90;;;;;;5052062;28;20462;-55
2022/12/14 01:38:38;;;;;;;28.15;14.52;;;2.20;99.90;;;;;;5052363;28;20107;-55
2022/12/14 01:41:06;;;;;;;30.85;14.77;;;2.30;99.90;;;;;;5052110;28;20462;-54
2022/12/14 01:43:48;;;;;;;33.10;14.10;;;2.30;99.90;;;;;;5051755;28;20021;-52
2022/12/14 01:46:22;;;;;;;39.50;13.57;;;2.20;99.90;;;;;;5052369;28;20037;-55
2022/12/14 01:48:52;;;;;;;31.15;13.88;;;2.30;99.90;;;;;;5051957;28;20115;-55
2022/12/14 01:51:18;;;;;;;29.17;14.00;;;2.20;99.90;;;;;;5051998;28;20037;-56
2022/12/14 01:53:45;;;;;;;31.10;14.45;;;2.20;99.90;;;;;;5051919;28;20031;-54
2022/12/14 01:56:11;;;;;;;30.40;13.35;;;2.20;99.90;;;;;;5051823;28;20029;-54
2022/12/14 01:58:37;;;;;;;35.60;14.20;;;2.20;99.90;;;;;;5051678;28;20035;-55
2022/12/14 02:01:03;;;;;;;33.10;14.68;;;2.10;99.90;;;;;;5050725;28;20104;-56
2022/12/14 02:03:34;;;;;;;36.50;16.10;;;2.10;99.90;;;;;;5051409;28;20075;-51
2022/12/14 02:06:07;;;;;;;33.35;14.73;;;2.00;99.90;;;;;;5051374;28;20047;-54
2022/12/14 02:08:34;;;;;;;32.30;14.05;;;2.00;99.90;;;;;;5050313;28;20021;-54
2022/12/14 02:11:01;;;;;;;33.45;14.65;;;2.00;99.90;;;;;;5050007;28;20063;-55
2022/12/14 02:13:31;;;;;;;32.20;14.45;;;2.00;99.90;;;;;;5051351;28;20025;-54
2022/12/14 02:15:57;;;;;;;38.25;15.13;;;2.00;99.90;;;;;;5051823;28;20021;-56
2022/12/14 02:18:25;;;;;;;34.40;15.80;;;2.00;99.90;;;;;;5051379;28;20041;-54
2022/12/14 02:21:10;;;;;;;31.50;14.15;;;2.00;99.90;;;;;;5051478;28;20033;-53
2022/12/14 02:24:09;;;;;;;38.50;16.02;;;2.00;99.90;;;;;;5051447;28;20036;-57
2022/12/14 02:26:57;;;;;;;33.38;15.55;;;2.00;99.90;;;;;;5051493;28;20068;-55
2022/12/14 02:29:28;;;;;;;36.72;14.48;;;2.00;99.90;;;;;;5051301;28;20078;-54
2022/12/14 02:32:19;;;;;;;33.53;15.25;;;2.00;99.90;;;;;;5051253;28;20033;-55
2022/12/14 02:34:53;;;;;;;32.05;15.85;;;2.00;99.90;;;;;;5051207;28;20032;-55
2022/12/14 02:37:25;;;;;;;35.30;15.07;;;2.00;99.90;;;;;;5051163;28;20174;-50
2022/12/14 02:40:09;;;;;;;30.73;13.68;;;2.00;99.90;;;;;;5051215;28;20481;-55
2022/12/14 02:42:53;;;;;;;32.35;14.18;;;2.00;99.90;;;;;;5051349;28;20095;-54
2022/12/14 02:45:31;;;;;;;32.45;15.00;;;2.00;99.90;;;;;;5051255;28;20033;-54
2022/12/14 02:48:03;;;;;;;32.15;14.05;;;2.00;99.90;;;;;;5050889;28;20469;-56
2022/12/14 02:50:50;;;;;;;34.45;14.10;;;2.00;99.90;;;;;;5050842;28;20037;-55
2022/12/14 02:53:22;;;;;;;33.92;14.15;;;2.00;99.90;;;;;;5051153;28;20021;-56
2022/12/14 02:55:51;;;;;;;28.15;14.27;;;1.90;99.90;;;;;;5051073;28;20481;-56
2022/12/14 02:58:24;;;;;;;35.42;14.77;;;1.90;99.90;;;;;;5050954;28;20033;-57
2022/12/14 03:00:52;;;;;;;34.63;14.57;;;1.90;99.90;;;;;;5050978;28;20029;-55
2022/12/14 03:03:18;;;;;;;31.58;13.23;;;2.00;99.90;;;;;;5051091;28;20083;-53
2022/12/14 03:06:01;;;;;;;28.75;12.93;;;2.00;99.90;;;;;;5049535;28;20025;-55
2022/12/14 03:08:31;;;;;;;33.35;14.82;;;2.00;99.90;;;;;;5050831;28;20088;-54
2022/12/14 03:11:05;;;;;;;40.38;15.55;;;2.00;99.90;;;;;;5033320;28;20044;-56
2022/12/14 03:13:45;;;;;;;36.10;15.00;;;2.00;99.90;;;;;;5050540;28;20044;-53
2022/12/14 03:16:29;;;;;;;34.72;14.18;;;2.00;99.90;;;;;;5052993;28;20029;-55
2022/12/14 03:19:16;;;;;;;32.63;14.00;;;2.00;99.90;;;;;;5054606;28;20049;-55
2022/12/14 03:21:48;;;;;;;29.90;13.18;;;2.00;99.90;;;;;;5054726;28;20112;-54
2022/12/14 03:24:20;;;;;;;31.27;14.05;;;2.00;99.90;;;;;;5054827;28;20151;-57
2022/12/14 03:26:59;;;;;;;27.02;13.50;;;2.10;99.90;;;;;;5054715;28;20025;-57
2022/12/14 03:29:28;;;;;;;33.65;13.98;;;2.10;99.90;;;;;;5054692;28;20033;-56
2022/12/14 03:31:55;;;;;;;33.63;14.35;;;2.10;99.90;;;;;;5052873;28;20401;-54
2022/12/14 03:34:32;;;;;;;36.47;15.13;;;2.10;99.90;;;;;;5054337;28;20878;-56
2022/12/14 03:37:12;;;;;;;32.45;13.98;;;2.10;99.90;;;;;;5054277;28;20029;-55
2022/12/14 03:39:40;;;;;;;30.58;13.73;;;2.20;99.90;;;;;;5054478;28;20025;-56
2022/12/14 03:42:29;;;;;;;38.22;15.70;;;2.20;99.90;;;;;;5054058;28;20379;-55
2022/12/14 03:45:00;;;;;;;35.78;14.82;;;2.20;99.90;;;;;;5054372;28;20021;-55
2022/12/14 03:47:45;;;;;;;33.30;14.40;;;2.20;99.90;;;;;;5054104;28;20039;-55
2022/12/14 03:50:20;;;;;;;34.92;14.55;;;2.20;99.90;;;;;;5052527;28;20070;-55
2022/12/14 03:53:04;;;;;;;33.13;15.65;;;2.10;99.90;;;;;;5053885;28;20025;-57
2022/12/14 03:55:49;;;;;;;30.45;13.77;;;2.00;99.90;;;;;;5052533;28;20410;-54
2022/12/14 03:58:37;;;;;;;35.35;14.57;;;2.00;99.90;;;;;;5053919;28;20025;-55
2022/12/14 04:01:29;;;;;;;38.70;14.93;;;2.00;99.90;;;;;;5052418;28;20027;-54
2022/12/14 04:04:09;;;;;;;35.50;15.30;;;2.00;99.90;;;;;;5053885;28;20021;-55
2022/12/14 04:07:08;;;;;;;36.72;15.30;;;2.00;99.90;;;;;;5053671;28;20048;-55
2022/12/14 04:09:42;;;;;;;31.38;13.50;;;1.90;99.90;;;;;;5053485;28;20374;-56
2022/12/14 04:21:14;;;;;;;28.90;14.70;;;1.90;99.90;;;;;;5053741;28;20056;-56
2022/12/14 04:26:39;;;;;;;32.33;14.20;;;1.80;99.90;;;;;;5052880;28;20039;-55
2022/12/14 04:32:12;;;;;;;33.92;13.50;;;1.70;99.90;;;;;;5057900;28;20076;-56
2022/12/14 04:34:42;;;;;;;36.15;14.23;;;1.60;99.90;;;;;;5073601;28;20537;-57
2022/12/14 04:37:12;;;;;;;29.92;15.18;;;1.50;99.90;;;;;;5073139;28;20024;-53
2022/12/14 04:40:08;;;;;;;30.60;14.75;;;1.50;99.90;;;;;;5073126;28;20017;-56
2022/12/14 04:42:39;;;;;;;32.42;13.02;;;1.50;99.90;;;;;;5050890;28;20429;-54
2022/12/14 04:45:10;;;;;;;33.03;15.25;;;1.40;99.90;;;;;;5052291;28;20025;-55
2022/12/14 04:47:43;;;;;;;40.05;14.77;;;1.40;99.90;;;;;;5052593;28;20692;-54
2022/12/14 04:50:16;;;;;;;35.65;15.68;;;1.40;99.90;;;;;;5051560;28;20042;-51
2022/12/14 04:52:51;;;;;;;33.92;15.23;;;1.30;99.90;;;;;;5052805;28;20029;-56
2022/12/14 04:55:30;;;;;;;35.33;15.70;;;1.30;99.90;;;;;;5053023;28;20048;-56
2022/12/14 04:58:11;;;;;;;32.95;14.88;;;1.30;99.90;;;;;;5050136;28;20492;-51
2022/12/14 05:00:49;;;;;;;39.63;15.93;;;1.30;99.90;;;;;;5052246;28;20029;-54
2022/12/14 05:03:24;;;;;;;36.08;15.23;;;1.30;99.90;;;;;;5051920;28;20354;-54
2022/12/14 05:06:12;;;;;;;31.48;15.32;;;1.30;99.90;;;;;;5052531;28;20086;-55
2022/12/14 05:08:48;;;;;;;38.15;16.00;;;1.30;99.90;;;;;;5052812;28;20044;-54
2022/12/14 05:11:27;;;;;;;32.97;15.30;;;1.30;99.90;;;;;;5052043;28;20063;-54
2022/12/14 05:13:53;;;;;;;32.88;15.60;;;1.30;99.90;;;;;;5052151;28;20029;-55
2022/12/14 05:16:21;;;;;;;28.67;15.27;;;1.40;99.90;;;;;;5051047;28;20031;-56
2022/12/14 05:18:48;;;;;;;30.77;14.85;;;1.40;99.90;;;;;;5052190;28;20041;-56
2022/12/14 05:24:00;;;;;;;31.67;14.57;;;1.50;99.90;;;;;;5052765;28;20071;-55
2022/12/14 05:26:27;;;;;;;33.00;14.73;;;1.50;99.90;;;;;;5052438;28;20021;-57
2022/12/14 05:28:52;;;;;;;33.63;16.45;;;1.60;99.90;;;;;;5051028;28;20025;-54
2022/12/14 05:31:18;;;;;;;39.15;15.63;;;1.70;99.90;;;;;;5049174;28;20272;-54
2022/12/14 05:33:44;;;;;;;36.47;15.68;;;1.70;99.90;;;;;;5052018;28;20562;-54
2022/12/14 05:36:10;;;;;;;35.67;15.27;;;1.70;99.90;;;;;;5050960;28;20119;-54
2022/12/14 05:38:36;;;;;;;35.30;16.13;;;1.70;99.90;;;;;;5051827;28;20100;-53
2022/12/14 05:41:02;;;;;;;36.97;16.17;;;1.70;99.90;;;;;;5052150;28;20028;-50
2022/12/14 05:43:28;;;;;;;38.50;16.02;;;1.70;99.90;;;;;;5051271;28;20041;-54
2022/12/14 05:46:01;;;;;;;32.30;15.00;;;1.80;99.90;;;;;;5052023;28;20024;-54
2022/12/14 05:48:26;;;;;;;36.22;15.30;;;1.80;99.90;;;;;;5052224;28;20473;-54
2022/12/14 05:50:52;;;;;;;36.50;16.60;;;1.80;99.90;;;;;;5051876;28;20101;-53
2022/12/14 05:53:18;;;;;;;32.97;14.23;;;1.80;99.90;;;;;;5051249;28;20417;-56
2022/12/14 05:55:52;;;;;;;38.00;15.57;;;1.90;99.90;;;;;;5050612;28;20035;-53
2022/12/14 05:58:18;;;;;;;34.95;15.88;;;1.90;99.90;;;;;;5052038;28;20104;-53
2022/12/14 06:00:43;;;;;;;32.90;13.73;;;1.90;99.90;;;;;;5051966;28;20069;-55
2022/12/14 06:03:09;;;;;;;30.17;13.85;;;1.90;99.90;;;;;;5051870;28;20045;-55
2022/12/14 06:05:35;;;;;;;33.38;14.18;;;1.90;99.90;;;;;;5051887;28;20021;-54
2022/12/14 06:08:01;;;;;;;29.20;13.18;;;1.90;99.90;;;;;;5051561;28;20035;-55
2022/12/14 06:10:26;;;;;;;34.15;13.70;;;1.90;99.90;;;;;;5051509;28;20381;-55
2022/12/14 06:12:52;;;;;;;29.70;13.75;;;1.90;99.90;;;;;;5051507;28;20091;-54
2022/12/14 06:15:18;;;;;;;36.03;14.30;;;1.90;99.90;;;;;;5051571;28;20108;-56
2022/12/14 06:17:45;;;;;;;33.00;13.70;;;1.90;99.90;;;;;;5051524;28;20359;-56
2022/12/14 06:20:12;;;;;;;34.60;13.45;;;1.80;99.90;;;;;;5051671;28;20124;-61
2022/12/14 06:22:37;;;;;;;23.95;12.23;;;1.80;99.90;;;;;;5051324;28;20369;-55
2022/12/14 06:25:03;;;;;;;31.63;14.00;;;1.80;99.90;;;;;;5051595;28;20027;-58
2022/12/14 06:27:29;;;;;;;38.40;14.40;;;1.70;99.90;;;;;;5050204;28;20474;-56
2022/12/14 06:29:55;;;;;;;32.25;14.40;;;1.70;99.90;;;;;;5056768;28;20107;-58
2022/12/14 06:32:20;;;;;;;27.52;12.98;;;1.60;99.90;;;;;;5061893;28;20125;-55
2022/12/14 06:34:46;;;;;;;30.55;13.77;;;1.60;99.90;;;;;;5062209;28;20481;-56
2022/12/14 06:37:12;;;;;;;25.77;12.15;;;1.60;99.90;;;;;;5068949;28;20028;-53
2022/12/14 06:39:38;;;;;;;29.80;13.95;;;1.50;99.90;;;;;;5071322;28;20028;-56
2022/12/14 06:42:04;;;;;;;28.83;12.02;;;1.50;99.90;;;;;;5071437;28;20321;-53
2022/12/14 06:44:30;;;;;;;28.08;13.98;;;1.50;99.90;;;;;;5071199;28;20038;-55
2022/12/14 06:46:56;;;;;;;30.52;13.45;;;1.40;99.90;;;;;;5071326;28;20029;-55
2022/12/14 06:49:22;;;;;;;29.98;14.07;;;1.30;99.90;;;;;;5071212;28;20025;-55
2022/12/14 06:51:48;;;;;;;28.77;12.05;;;1.30;99.90;;;;;;5074611;28;20033;-59
2022/12/14 06:54:15;;;;;;;28.10;12.85;;;1.20;99.90;;;;;;5065663;28;20026;-56
2022/12/14 06:56:43;;;;;;;28.48;12.25;;;1.10;99.90;;;;;;5055571;28;20484;-54
2022/12/14 06:59:09;;;;;;;29.88;14.52;;;1.10;99.90;;;;;;5054674;28;20032;-57
2022/12/14 07:01:36;;;;;;;28.35;14.05;;;1.00;99.90;;;;;;5055042;28;20025;-53
2022/12/14 07:04:02;;;;;;;29.67;14.60;;;1.00;99.90;;;;;;5054286;28;20539;-54
2022/12/14 07:06:38;;;;;;;32.90;12.95;;;0.90;99.90;;;;;;5054260;28;20484;-53
2022/12/14 07:09:05;;;;;;;36.08;14.20;;;0.90;99.90;;;;;;5054584;28;20013;-56
2022/12/14 07:11:30;;;;;;;29.95;12.07;;;0.90;99.90;;;;;;5054946;28;20124;-54
2022/12/14 07:13:59;;;;;;;26.63;12.63;;;0.90;99.90;;;;;;5054622;28;20067;-56
2022/12/14 07:16:28;;;;;;;29.98;12.48;;;0.90;99.90;;;;;;5054813;28;20025;-57
2022/12/14 07:18:54;;;;;;;28.45;12.32;;;0.80;99.90;;;;;;5054646;28;20117;-56
2022/12/14 07:21:21;;;;;;;30.58;13.30;;;0.80;99.90;;;;;;5054700;28;20087;-58
2022/12/14 07:23:48;;;;;;;28.40;13.25;;;0.90;99.90;;;;;;5055107;28;20025;-57
2022/12/14 07:26:22;;;;;;;26.70;12.55;;;0.90;99.90;;;;;;5054660;28;20072;-57
2022/12/14 07:28:49;;;;;;;26.33;13.10;;;0.90;99.90;;;;;;5054724;28;20029;-58
2022/12/14 07:31:20;;;;;;;28.48;13.38;;;0.90;99.90;;;;;;5054491;28;20033;-57
2022/12/14 07:33:47;;;;;;;23.88;11.65;;;0.80;99.90;;;;;;5054396;28;20021;-57
2022/12/14 07:36:15;;;;;;;24.48;12.40;;;0.90;99.90;;;;;;5054660;28;20071;-57
2022/12/14 07:38:43;;;;;;;29.90;12.52;;;0.90;99.90;;;;;;5054527;28;20107;-58
2022/12/14 07:41:19;;;;;;;28.00;13.00;;;0.90;99.90;;;;;;5054334;28;20378;-58
2022/12/14 07:43:46;;;;;;;24.27;11.07;;;0.90;99.90;;;;;;5054152;28;20121;-58
2022/12/14 07:46:15;;;;;;;22.00;11.30;;;0.90;99.90;;;;;;5054128;28;20025;-63
2022/12/14 07:48:46;;;;;;;23.65;12.05;;;0.90;99.90;;;;;;5054322;28;20025;-58
2022/12/14 07:51:15;;;;;;;26.27;11.73;;;0.90;99.90;;;;;;5054020;28;20040;-59
2022/12/14 07:53:42;;;;;;;23.15;11.73;;;0.80;99.90;;;;;;5052756;28;20485;-58
2022/12/14 07:56:16;;;;;;;33.67;12.52;;;0.80;99.90;;;;;;5053857;28;20427;-58
2022/12/14 07:58:42;;;;;;;23.40;13.23;;;0.80;99.90;;;;;;5053671;28;20025;-58
2022/12/14 08:01:12;;;;;;;24.92;11.80;;;0.70;99.90;;;;;;5053886;28;20523;-59
2022/12/14 08:03:40;;;;;;;25.45;11.95;;;0.70;99.90;;;;;;5053692;28;20029;-59
2022/12/14 08:06:07;;;;;;;28.70;11.10;;;0.70;99.90;;;;;;5053863;28;20025;-58
2022/12/14 08:08:33;;;;;;;31.33;11.80;;;0.70;99.90;;;;;;5053581;28;20021;-58
2022/12/14 08:10:59;;;;;;;26.98;11.85;;;0.70;99.90;;;;;;5053374;28;20032;-58
2022/12/14 08:13:25;;;;;;;26.13;12.48;;;0.70;99.90;;;;;;5053518;28;20031;-57
2022/12/14 08:15:50;;;;;;;25.27;12.93;;;0.70;99.90;;;;;;5053626;28;20048;-58
2022/12/14 08:18:16;;;;;;;25.30;13.32;;;0.70;99.90;;;;;;5053533;28;20056;-58
2022/12/14 08:20:42;;;;;;;26.25;12.82;;;0.70;99.90;;;;;;5053355;28;20033;-60
2022/12/14 08:23:07;;;;;;;29.67;12.70;;;0.70;99.90;;;;;;5053551;28;20361;-59
2022/12/14 08:25:33;;;;;;;25.17;12.70;;;0.70;99.90;;;;;;5053392;28;20029;-58
2022/12/14 08:27:59;;;;;;;35.65;14.82;;;0.70;99.90;;;;;;5052903;28;20028;-57
2022/12/14 08:30:24;;;;;;;29.58;13.60;;;0.70;99.90;;;;;;5056698;28;20535;-58
2022/12/14 08:32:50;;;;;;;29.33;12.43;;;0.70;99.90;;;;;;5058820;28;20119;-58
2022/12/14 08:35:16;;;;;;;27.80;13.57;;;0.70;99.90;;;;;;5053322;28;20469;-59
2022/12/14 08:37:42;;;;;;;25.27;11.90;;;0.80;99.90;;;;;;5042842;28;20036;-60
2022/12/14 08:40:08;;;;;;;30.23;13.80;;;0.80;99.90;;;;;;5056638;28;20031;-58
2022/12/14 08:42:34;;;;;;;27.33;12.60;;;0.80;99.90;;;;;;5057676;28;20021;-62
2022/12/14 08:44:59;;;;;;;24.05;11.43;;;0.80;99.90;;;;;;5071481;28;20039;-58
2022/12/14 08:47:25;;;;;;;23.90;11.77;;;0.80;99.90;;;;;;5051138;28;20427;-59
2022/12/14 08:49:52;;;;;;;29.83;12.73;;;0.80;99.90;;;;;;5052615;28;20021;-59
2022/12/14 08:52:20;;;;;;;27.75;13.57;;;0.80;99.90;;;;;;5051517;28;20112;-58
2022/12/14 08:54:46;;;;;;;25.88;13.00;;;0.90;99.90;;;;;;5051519;28;20067;-58
2022/12/14 08:57:11;;;;;;;28.85;13.68;;;0.90;99.90;;;;;;5052712;28;20400;-57
2022/12/14 08:59:38;;;;;;;27.35;12.60;;;1.00;99.90;;;;;;5052876;28;20393;-59
2022/12/14 09:02:04;;;;;;;26.17;12.93;;;1.00;99.90;;;;;;5052927;28;20035;-60
2022/12/14 09:04:29;;;;;;;26.58;12.38;;;1.10;99.90;;;;;;5052593;28;20456;-58
2022/12/14 09:06:55;;;;;;;26.30;11.80;;;1.10;99.90;;;;;;5052634;28;20028;-58
2022/12/14 09:09:21;;;;;;;22.00;11.57;;;1.10;99.90;;;;;;5052576;28;20031;-58
2022/12/14 09:11:47;;;;;;;29.63;13.43;;;1.10;99.90;;;;;;5052375;28;20036;-58
2022/12/14 09:14:12;;;;;;;34.10;13.38;;;1.20;99.90;;;;;;5050840;28;20458;-58
2022/12/14 09:16:39;;;;;;;31.83;13.15;;;1.20;99.90;;;;;;5052340;28;20032;-59
2022/12/14 09:19:05;;;;;;;19.67;10.30;;;1.20;99.90;;;;;;5051009;28;20059;-58
2022/12/14 09:21:30;;;;;;;25.50;12.05;;;1.30;99.90;;;;;;5052968;28;20108;-59
2022/12/14 09:23:56;;;;;;;22.42;10.95;;;1.30;99.90;;;;;;5051030;28;20024;-58
2022/12/14 09:26:24;;;;;;;25.63;13.43;;;1.30;99.90;;;;;;5052480;28;20037;-59
2022/12/14 09:28:55;;;;;;;25.33;11.23;;;1.40;99.90;;;;;;5052439;28;20025;-61
2022/12/14 09:31:23;;;;;;;25.85;12.30;;;1.40;99.90;;;;;;5052304;28;20037;-59
2022/12/14 09:33:49;;;;;;;24.45;10.88;;;1.50;99.90;;;;;;5051780;28;20033;-59
2022/12/14 09:36:17;;;;;;;21.80;11.80;;;1.50;99.90;;;;;;5052010;28;20543;-58
2022/12/14 09:38:43;;;;;;;31.55;12.98;;;1.50;99.90;;;;;;5052307;28;20021;-59
2022/12/14 09:41:33;;;;;;;27.95;13.27;;;1.50;99.90;;;;;;5052301;28;20033;-59
2022/12/14 09:44:23;;;;;;;25.98;11.63;;;1.60;99.90;;;;;;5052244;28;20021;-59
2022/12/14 09:47:13;;;;;;;29.13;11.25;;;1.60;99.90;;;;;;5052570;28;20381;-58
2022/12/14 09:49:54;;;;;;;28.27;11.93;;;1.60;99.90;;;;;;5052004;28;20424;-60
2022/12/14 09:52:28;;;;;;;21.95;10.55;;;1.70;99.90;;;;;;5051532;28;20098;-61
2022/12/14 09:54:57;;;;;;;28.83;12.05;;;1.80;99.90;;;;;;5051272;28;20052;-59
2022/12/14 09:57:36;;;;;;;29.05;12.05;;;1.90;99.90;;;;;;5051795;28;20025;-62
2022/12/14 10:00:10;;;;;;;22.95;10.05;;;1.90;99.90;;;;;;5049993;28;20013;-59
2022/12/14 10:02:39;;;;;;;31.25;13.38;;;2.00;99.90;;;;;;5051701;28;20039;-59
2022/12/14 10:05:26;;;;;;;29.40;12.63;;;2.00;99.90;;;;;;5051441;28;20028;-58
2022/12/14 10:08:17;;;;;;;28.92;12.98;;;2.00;99.90;;;;;;5051340;28;20481;-59
2022/12/14 10:11:20;;;;;;;29.45;12.10;;;2.00;99.90;;;;;;5049993;28;20043;-61
2022/12/14 10:14:12;;;;;;;26.83;11.65;;;2.10;99.90;;;;;;5052495;28;20035;-60
2022/12/14 10:17:14;;;;;;;29.90;11.88;;;2.10;99.90;;;;;;5069100;28;20029;-60
2022/12/14 10:19:49;;;;;;;28.58;11.70;;;2.20;99.90;;;;;;5071296;28;20386;-60
2022/12/14 10:22:37;;;;;;;30.83;12.05;;;2.20;99.90;;;;;;5069704;28;20036;-61
2022/12/14 10:25:10;;;;;;;24.30;11.35;;;2.30;99.90;;;;;;5070376;28;20096;-59
2022/12/14 10:27:39;;;;;;;26.40;11.70;;;2.30;99.90;;;;;;5059130;28;20465;-60
2022/12/14 10:30:15;;;;;;;28.70;12.80;;;2.40;99.90;;;;;;5051313;28;20025;-58
2022/12/14 10:33:12;;;;;;;30.98;12.05;;;2.40;99.90;;;;;;5051126;28;20118;-57
2022/12/14 10:35:52;;;;;;;28.42;13.65;;;2.40;99.90;;;;;;5049962;28;20473;-57
2022/12/14 10:38:44;;;;;;;30.45;13.20;;;2.40;99.90;;;;;;5062359;28;20107;-57
2022/12/14 10:41:34;;;;;;;30.88;14.15;;;2.50;99.90;;;;;;5071137;28;20476;-62
2022/12/14 10:44:12;;;;;;;30.73;12.63;;;2.60;99.90;;;;;;5068392;28;20055;-60
2022/12/14 10:47:23;;;;;;;32.55;13.32;;;2.70;99.90;;;;;;5071277;28;20107;-59
2022/12/14 11:02:38;;;;;;;34.72;16.33;;;2.80;99.90;;;;;;5087582;27;20963;-60
2022/12/14 11:05:22;;;;;;;32.25;14.57;;;3.10;99.90;;;;;;5087219;28;20028;-59
2022/12/14 11:07:48;;;;;;;26.60;13.52;;;3.20;99.90;;;;;;5087441;28;20032;-59
2022/12/14 11:10:27;;;;;;;29.95;13.20;;;3.20;99.90;;;;;;5088529;28;20017;-60
2022/12/14 11:12:56;;;;;;;30.33;13.65;;;3.30;99.90;;;;;;5068239;28;20117;-61
2022/12/14 11:15:35;;;;;;;29.98;13.93;;;3.40;99.90;;;;;;5068073;28;20486;-62
2022/12/14 11:18:14;;;;;;;31.77;12.80;;;3.50;99.90;;;;;;5068020;28;20039;-61
2022/12/14 11:20:56;;;;;;;24.65;10.85;;;3.60;99.90;;;;;;5068035;28;20046;-62
2022/12/14 11:23:34;;;;;;;23.83;12.10;;;3.70;99.90;;;;;;5067955;28;20029;-62
2022/12/14 11:26:03;;;;;;;24.88;11.95;;;3.80;99.90;;;;;;5067766;28;20274;-62
2022/12/14 11:28:33;;;;;;;31.77;12.88;;;3.90;99.90;;;;;;5067732;28;20027;-61
2022/12/14 11:31:01;;;;;;;24.17;10.77;;;4.00;99.90;;;;;;5078596;28;20111;-62
2022/12/14 11:33:44;;;;;;;27.02;12.27;;;3.90;99.90;;;;;;5087993;28;20563;-61
2022/12/14 11:36:26;;;;;;;26.92;12.23;;;3.90;99.90;;;;;;5076339;28;20020;-62
2022/12/14 11:39:01;;;;;;;29.88;10.98;;;4.00;99.90;;;;;;5061706;28;20029;-61
2022/12/14 11:41:33;;;;;;;25.27;11.45;;;4.00;99.90;;;;;;5058754;28;20040;-61
2022/12/14 11:44:25;;;;;;;29.27;12.00;;;4.10;99.90;;;;;;5069093;28;20569;-60
2022/12/14 11:46:51;;;;;;;24.20;11.15;;;4.20;99.90;;;;;;5074321;28;20048;-61
2022/12/14 11:49:28;;;;;;;20.95;10.40;;;4.40;99.90;;;;;;5087694;28;20115;-60
2022/12/14 11:52:00;;;;;;;29.10;10.82;;;4.50;99.90;;;;;;5087322;28;20024;-60
2022/12/14 11:54:29;;;;;;;20.20;10.52;;;4.60;99.90;;;;;;5075210;28;20025;-60
2022/12/14 11:57:00;;;;;;;25.02;10.95;;;4.80;99.90;;;;;;5070180;28;20024;-62
2022/12/14 11:59:31;;;;;;;23.35;11.25;;;4.90;99.90;;;;;;5075314;28;20024;-60
2022/12/14 12:02:18;;;;;;;25.65;10.95;;;4.90;99.90;;;;;;5062290;28;20093;-61
2022/12/14 12:04:52;;;;;;;25.00;12.25;;;4.90;99.90;;;;;;5053650;28;20096;-59
2022/12/14 12:07:31;;;;;;;25.48;11.02;;;4.90;99.90;;;;;;5052548;28;20047;-61
2022/12/14 12:10:06;;;;;;;22.92;11.50;;;5.00;99.90;;;;;;5053505;28;20025;-59
2022/12/14 12:12:32;;;;;;;24.70;10.95;;;5.00;99.90;;;;;;5056070;28;20025;-59
2022/12/14 12:14:58;;;;;;;22.38;10.07;;;5.00;99.90;;;;;;5073535;28;20031;-60
2022/12/14 12:17:45;;;;;;;20.02;10.25;;;5.10;99.90;;;;;;5061628;28;20049;-59
2022/12/14 12:20:53;;;;;;;22.83;10.65;;;5.20;99.90;;;;;;5053227;28;20025;-60
2022/12/14 12:23:23;;;;;;;21.48;10.38;;;5.40;99.90;;;;;;5022479;28;20124;-60
2022/12/14 12:25:52;;;;;;;23.30;10.10;;;5.60;99.90;;;;;;5073403;28;20056;-61
2022/12/14 12:28:25;;;;;;;19.65;9.80;;;5.70;99.90;;;;;;5054289;28;20120;-60
2022/12/14 12:30:55;;;;;;;24.92;10.48;;;5.90;99.90;;;;;;5052637;28;20025;-60
2022/12/14 12:34:11;;;;;;;18.73;8.95;;;6.00;99.90;;;;;;5050354;28;20104;-62
2022/12/14 12:36:37;;;;;;;20.48;9.00;;;6.10;99.90;;;;;;5011523;28;20465;-61
2022/12/14 12:39:06;;;;;;;21.52;10.18;;;6.40;99.90;;;;;;5053054;28;20021;-59
2022/12/14 12:42:03;;;;;;;25.90;9.82;;;6.50;99.90;;;;;;5047872;28;20032;-53
2022/12/14 12:44:44;;;;;;;22.00;9.27;;;6.50;99.90;;;;;;5053316;28;20130;-54
2022/12/14 12:47:23;;;;;;;18.58;9.10;;;6.60;99.90;;;;;;5060818;28;20099;-54
2022/12/14 12:49:49;;;;;;;17.23;8.65;;;6.70;99.90;;;;;;5066643;28;20017;-52
2022/12/14 12:53:03;;;;;;;19.00;8.82;;;6.70;99.90;;;;;;5069687;28;20028;-54
2022/12/14 12:55:35;;;;;;;18.27;8.95;;;6.50;99.90;;;;;;5052692;28;20441;-52
2022/12/14 12:58:03;;;;;;;18.95;8.80;;;6.30;99.90;;;;;;5052460;28;20477;-51
2022/12/14 13:00:30;;;;;;;18.77;8.90;;;5.90;99.90;;;;;;5051469;28;20480;-51
2022/12/14 13:03:06;;;;;;;15.73;8.60;;;5.80;99.90;;;;;;5052736;28;20092;-50
2022/12/14 13:05:34;;;;;;;16.95;8.30;;;5.80;99.90;;;;;;5051813;28;20036;-53
2022/12/14 13:08:06;;;;;;;19.65;9.10;;;6.10;99.90;;;;;;5051199;28;20067;-52
2022/12/14 13:10:38;;;;;;;18.25;8.63;;;6.90;99.90;;;;;;5052722;28;20029;-53
2022/12/14 13:13:12;;;;;;;18.13;8.75;;;7.50;99.90;;;;;;5052256;28;20599;-52
2022/12/14 13:15:51;;;;;;;21.83;10.68;;;7.40;99.90;;;;;;5051326;28;20041;-54
2022/12/14 13:18:21;;;;;;;20.90;9.23;;;7.10;99.90;;;;;;5072397;28;20016;-49
2022/12/14 13:20:48;;;;;;;20.77;9.50;;;6.60;99.90;;;;;;5072149;28;20025;-51
2022/12/14 13:23:14;;;;;;;20.13;9.73;;;6.50;99.90;;;;;;5071286;28;20429;-50
2022/12/14 13:26:09;;;;;;;20.50;9.77;;;6.30;99.90;;;;;;5062712;28;20050;-56
2022/12/14 13:28:41;;;;;;;19.30;8.65;;;6.00;99.90;;;;;;5052460;28;20417;-53
2022/12/14 13:31:17;;;;;;;19.17;9.23;;;5.90;99.90;;;;;;5051614;28;20028;-50
2022/12/14 13:33:44;;;;;;;22.75;9.68;;;5.80;99.90;;;;;;5051952;28;20078;-60